sensor_id;sensor_type;location;lat;lon;timestamp;temperature;humidity
17236;DHT22;8734;59.272;17.780;2023-05-07T00:00:48;0.00;99.90
17236;DHT22;8734;59.272;17.780;2023-05-07T00:03:18;-0.10;99.90
17236;DHT22;8734;59.272;17.780;2023-05-07T00:05:47;-0.10;99.90
17236;DHT22;8734;59.272;17.780;2023-05-07T00:08:17;-0.10;99.90
17236;DHT22;8734;59.272;17.780;2023-05-07T00:10:45;-0.20;99.90
17236;DHT22;8734;59.272;17.780;2023-05-07T00:13:13;-0.20;99.90
17236;DHT22;8734;59.272;17.780;2023-05-07T00:15:41;-0.20;99.90
17236;DHT22;8734;59.272;17.780;2023-05-07T00:18:10;-0.30;99.90
17236;DHT22;8734;59.272;17.780;2023-05-07T00:20:38;-0.30;99.90
17236;DHT22;8734;59.272;17.780;2023-05-07T00:23:07;-0.30;99.90
17236;DHT22;8734;59.272;17.780;2023-05-07T00:25:36;-0.30;99.90
17236;DHT22;8734;59.272;17.780;2023-05-07T00:28:05;-0.30;99.90
17236;DHT22;8734;59.272;17.780;2023-05-07T00:30:33;-0.30;99.90
17236;DHT22;8734;59.272;17.780;2023-05-07T00:33:01;-0.30;99.90
17236;DHT22;8734;59.272;17.780;2023-05-07T00:35:29;-0.30;99.90
17236;DHT22;8734;59.272;17.780;2023-05-07T00:37:58;-0.40;99.90
17236;DHT22;8734;59.272;17.780;2023-05-07T00:40:27;-0.30;99.90
17236;DHT22;8734;59.272;17.780;2023-05-07T00:42:58;-0.40;99.90
17236;DHT22;8734;59.272;17.780;2023-05-07T00:45:27;-0.40;99.90
17236;DHT22;8734;59.272;17.780;2023-05-07T00:48:00;-0.50;99.90
17236;DHT22;8734;59.272;17.780;2023-05-07T00:50:28;-0.50;99.90
17236;DHT22;8734;59.272;17.780;2023-05-07T00:52:58;-0.50;99.90
17236;DHT22;8734;59.272;17.780;2023-05-07T00:55:27;-0.50;99.90
17236;DHT22;8734;59.272;17.780;2023-05-07T00:57:57;-0.50;99.90
17236;DHT22;8734;59.272;17.780;2023-05-07T01:00:26;-0.50;99.90
17236;DHT22;8734;59.272;17.780;2023-05-07T01:02:54;-0.50;99.90
17236;DHT22;8734;59.272;17.780;2023-05-07T01:05:24;-0.60;99.90
17236;DHT22;8734;59.272;17.780;2023-05-07T01:07:55;-0.60;99.90
17236;DHT22;8734;59.272;17.780;2023-05-07T01:10:24;-0.60;99.90
17236;DHT22;8734;59.272;17.780;2023-05-07T01:12:54;-0.60;99.90
17236;DHT22;8734;59.272;17.780;2023-05-07T01:15:25;-0.60;99.90
17236;DHT22;8734;59.272;17.780;2023-05-07T01:17:53;-0.70;99.90
17236;DHT22;8734;59.272;17.780;2023-05-07T01:20:22;-0.70;99.90
17236;DHT22;8734;59.272;17.780;2023-05-07T01:22:53;-0.80;99.90
17236;DHT22;8734;59.272;17.780;2023-05-07T01:25:21;-0.80;99.90
17236;DHT22;8734;59.272;17.780;2023-05-07T01:27:50;-0.80;99.90
17236;DHT22;8734;59.272;17.780;2023-05-07T01:30:19;-0.80;99.90
17236;DHT22;8734;59.272;17.780;2023-05-07T01:32:51;-0.80;99.90
17236;DHT22;8734;59.272;17.780;2023-05-07T01:35:22;-0.80;99.90
17236;DHT22;8734;59.272;17.780;2023-05-07T01:37:54;-0.80;99.90
17236;DHT22;8734;59.272;17.780;2023-05-07T01:40:23;-0.90;99.90
17236;DHT22;8734;59.272;17.780;2023-05-07T01:42:52;-0.90;99.90
17236;DHT22;8734;59.272;17.780;2023-05-07T01:45:22;-0.90;99.90
17236;DHT22;8734;59.272;17.780;2023-05-07T01:47:51;-1.00;99.90
17236;DHT22;8734;59.272;17.780;2023-05-07T01:50:21;-1.00;99.90
17236;DHT22;8734;59.272;17.780;2023-05-07T01:52:50;-1.00;99.90
17236;DHT22;8734;59.272;17.780;2023-05-07T01:55:20;-1.00;99.90
17236;DHT22;8734;59.272;17.780;2023-05-07T01:57:49;-1.00;99.90
17236;DHT22;8734;59.272;17.780;2023-05-07T02:00:17;-1.00;99.90
17236;DHT22;8734;59.272;17.780;2023-05-07T02:02:46;-1.00;99.90
17236;DHT22;8734;59.272;17.780;2023-05-07T02:05:15;-1.00;99.90
17236;DHT22;8734;59.272;17.780;2023-05-07T02:07:43;-1.10;99.90
17236;DHT22;8734;59.272;17.780;2023-05-07T02:10:11;-1.10;99.90
17236;DHT22;8734;59.272;17.780;2023-05-07T02:12:41;-1.10;99.90
17236;DHT22;8734;59.272;17.780;2023-05-07T02:15:10;-1.10;99.90
17236;DHT22;8734;59.272;17.780;2023-05-07T02:17:57;-1.10;99.90
17236;DHT22;8734;59.272;17.780;2023-05-07T02:20:27;-1.10;99.90
17236;DHT22;8734;59.272;17.780;2023-05-07T02:22:55;-1.10;99.90
17236;DHT22;8734;59.272;17.780;2023-05-07T02:25:23;-1.20;99.90
17236;DHT22;8734;59.272;17.780;2023-05-07T02:27:53;-1.20;99.90
17236;DHT22;8734;59.272;17.780;2023-05-07T02:30:22;-1.20;99.90
17236;DHT22;8734;59.272;17.780;2023-05-07T02:32:50;-1.20;99.90
17236;DHT22;8734;59.272;17.780;2023-05-07T02:35:18;-1.20;99.90
17236;DHT22;8734;59.272;17.780;2023-05-07T02:37:47;-1.20;99.90
17236;DHT22;8734;59.272;17.780;2023-05-07T02:40:15;-1.30;99.90
17236;DHT22;8734;59.272;17.780;2023-05-07T02:42:43;-1.30;99.90
17236;DHT22;8734;59.272;17.780;2023-05-07T02:45:13;-1.30;99.90
17236;DHT22;8734;59.272;17.780;2023-05-07T02:47:41;-1.30;99.90
17236;DHT22;8734;59.272;17.780;2023-05-07T02:50:10;-1.30;99.90
17236;DHT22;8734;59.272;17.780;2023-05-07T02:52:39;-1.30;99.90
17236;DHT22;8734;59.272;17.780;2023-05-07T02:55:08;-1.20;99.90
17236;DHT22;8734;59.272;17.780;2023-05-07T02:57:37;-1.30;99.90
17236;DHT22;8734;59.272;17.780;2023-05-07T03:00:14;-1.30;99.90
17236;DHT22;8734;59.272;17.780;2023-05-07T03:02:43;-1.30;99.90
17236;DHT22;8734;59.272;17.780;2023-05-07T03:05:14;-1.30;99.90
17236;DHT22;8734;59.272;17.780;2023-05-07T03:07:42;-1.30;99.90
17236;DHT22;8734;59.272;17.780;2023-05-07T03:10:13;-1.20;99.90
17236;DHT22;8734;59.272;17.780;2023-05-07T03:12:41;-1.20;99.90
17236;DHT22;8734;59.272;17.780;2023-05-07T03:15:10;-1.20;99.90
17236;DHT22;8734;59.272;17.780;2023-05-07T03:17:41;-1.20;99.90
17236;DHT22;8734;59.272;17.780;2023-05-07T03:20:10;-1.20;99.90
17236;DHT22;8734;59.272;17.780;2023-05-07T03:22:39;-1.10;99.90
17236;DHT22;8734;59.272;17.780;2023-05-07T03:25:09;-1.10;99.90
17236;DHT22;8734;59.272;17.780;2023-05-07T03:27:37;-1.10;99.90
17236;DHT22;8734;59.272;17.780;2023-05-07T03:30:06;-1.10;99.90
17236;DHT22;8734;59.272;17.780;2023-05-07T03:32:36;-1.10;99.90
17236;DHT22;8734;59.272;17.780;2023-05-07T03:35:06;-1.10;99.90
17236;DHT22;8734;59.272;17.780;2023-05-07T03:37:35;-1.10;99.90
17236;DHT22;8734;59.272;17.780;2023-05-07T03:40:04;-1.00;99.90
17236;DHT22;8734;59.272;17.780;2023-05-07T03:42:33;-1.00;99.90
17236;DHT22;8734;59.272;17.780;2023-05-07T03:45:01;-0.90;99.90
17236;DHT22;8734;59.272;17.780;2023-05-07T03:47:30;-0.90;99.90
17236;DHT22;8734;59.272;17.780;2023-05-07T03:49:58;-0.90;99.90
17236;DHT22;8734;59.272;17.780;2023-05-07T03:52:28;-0.90;99.90
17236;DHT22;8734;59.272;17.780;2023-05-07T03:54:57;-0.90;99.90
17236;DHT22;8734;59.272;17.780;2023-05-07T03:57:25;-0.90;99.90
17236;DHT22;8734;59.272;17.780;2023-05-07T03:59:53;-0.90;99.90
17236;DHT22;8734;59.272;17.780;2023-05-07T04:02:22;-0.80;99.90
17236;DHT22;8734;59.272;17.780;2023-05-07T04:04:51;-0.80;99.90
17236;DHT22;8734;59.272;17.780;2023-05-07T04:07:19;-0.70;99.90
17236;DHT22;8734;59.272;17.780;2023-05-07T04:09:49;-0.70;99.90
17236;DHT22;8734;59.272;17.780;2023-05-07T04:12:18;-0.70;99.90
17236;DHT22;8734;59.272;17.780;2023-05-07T04:14:46;-0.60;99.90
17236;DHT22;8734;59.272;17.780;2023-05-07T04:17:15;-0.50;99.90
17236;DHT22;8734;59.272;17.780;2023-05-07T04:19:43;-0.50;99.90
17236;DHT22;8734;59.272;17.780;2023-05-07T04:22:12;-0.40;99.90
17236;DHT22;8734;59.272;17.780;2023-05-07T04:24:40;-0.40;99.90
17236;DHT22;8734;59.272;17.780;2023-05-07T04:27:10;-0.30;99.90
17236;DHT22;8734;59.272;17.780;2023-05-07T04:29:38;-0.30;99.90
17236;DHT22;8734;59.272;17.780;2023-05-07T04:32:09;-0.30;99.90
17236;DHT22;8734;59.272;17.780;2023-05-07T04:34:38;-0.20;99.90
17236;DHT22;8734;59.272;17.780;2023-05-07T04:37:06;-0.10;99.90
17236;DHT22;8734;59.272;17.780;2023-05-07T04:39:34;0.00;99.90
17236;DHT22;8734;59.272;17.780;2023-05-07T04:42:03;0.10;99.90
17236;DHT22;8734;59.272;17.780;2023-05-07T04:44:32;0.20;99.90
17236;DHT22;8734;59.272;17.780;2023-05-07T04:47:01;0.40;99.90
17236;DHT22;8734;59.272;17.780;2023-05-07T04:49:29;0.50;99.90
17236;DHT22;8734;59.272;17.780;2023-05-07T04:51:58;0.60;99.90
17236;DHT22;8734;59.272;17.780;2023-05-07T04:54:27;0.70;99.90
17236;DHT22;8734;59.272;17.780;2023-05-07T04:56:55;0.80;99.90
17236;DHT22;8734;59.272;17.780;2023-05-07T04:59:23;0.90;99.90
17236;DHT22;8734;59.272;17.780;2023-05-07T05:01:54;1.10;99.90
17236;DHT22;8734;59.272;17.780;2023-05-07T05:04:23;1.20;99.90
17236;DHT22;8734;59.272;17.780;2023-05-07T05:06:51;1.30;99.90
17236;DHT22;8734;59.272;17.780;2023-05-07T05:09:20;1.50;99.90
17236;DHT22;8734;59.272;17.780;2023-05-07T05:11:48;1.60;99.90
17236;DHT22;8734;59.272;17.780;2023-05-07T05:14:16;2.00;99.90
17236;DHT22;8734;59.272;17.780;2023-05-07T05:16:44;2.20;99.90
17236;DHT22;8734;59.272;17.780;2023-05-07T05:19:14;2.50;99.90
17236;DHT22;8734;59.272;17.780;2023-05-07T05:21:43;2.60;99.90
17236;DHT22;8734;59.272;17.780;2023-05-07T05:24:12;2.80;99.90
17236;DHT22;8734;59.272;17.780;2023-05-07T05:26:40;2.90;99.90
17236;DHT22;8734;59.272;17.780;2023-05-07T05:29:08;3.00;99.90
17236;DHT22;8734;59.272;17.780;2023-05-07T05:31:37;3.20;99.90
17236;DHT22;8734;59.272;17.780;2023-05-07T05:34:05;3.30;99.90
17236;DHT22;8734;59.272;17.780;2023-05-07T05:36:35;3.40;99.90
17236;DHT22;8734;59.272;17.780;2023-05-07T05:39:03;3.70;99.90
17236;DHT22;8734;59.272;17.780;2023-05-07T05:41:32;3.90;99.90
17236;DHT22;8734;59.272;17.780;2023-05-07T05:44:00;4.00;99.90
17236;DHT22;8734;59.272;17.780;2023-05-07T05:46:28;4.00;99.90
17236;DHT22;8734;59.272;17.780;2023-05-07T05:48:57;4.10;99.90
17236;DHT22;8734;59.272;17.780;2023-05-07T05:51:25;4.20;99.90
17236;DHT22;8734;59.272;17.780;2023-05-07T05:53:56;4.20;99.90
17236;DHT22;8734;59.272;17.780;2023-05-07T05:56:24;4.40;99.90
17236;DHT22;8734;59.272;17.780;2023-05-07T05:58:52;4.70;99.90
17236;DHT22;8734;59.272;17.780;2023-05-07T06:01:21;4.80;99.90
17236;DHT22;8734;59.272;17.780;2023-05-07T06:03:50;5.00;99.90
17236;DHT22;8734;59.272;17.780;2023-05-07T06:06:18;5.20;99.90
17236;DHT22;8734;59.272;17.780;2023-05-07T06:08:46;5.30;99.90
17236;DHT22;8734;59.272;17.780;2023-05-07T06:11:16;5.30;99.90
17236;DHT22;8734;59.272;17.780;2023-05-07T06:13:44;5.40;99.90
17236;DHT22;8734;59.272;17.780;2023-05-07T06:16:14;5.40;99.90
17236;DHT22;8734;59.272;17.780;2023-05-07T06:18:43;5.60;99.90
17236;DHT22;8734;59.272;17.780;2023-05-07T06:21:13;5.70;99.90
17236;DHT22;8734;59.272;17.780;2023-05-07T06:23:42;5.80;99.90
17236;DHT22;8734;59.272;17.780;2023-05-07T06:26:11;5.90;99.90
17236;DHT22;8734;59.272;17.780;2023-05-07T06:28:40;6.00;99.90
17236;DHT22;8734;59.272;17.780;2023-05-07T06:31:13;6.00;99.90
17236;DHT22;8734;59.272;17.780;2023-05-07T06:33:42;6.20;99.90
17236;DHT22;8734;59.272;17.780;2023-05-07T06:36:10;6.20;99.90
17236;DHT22;8734;59.272;17.780;2023-05-07T06:38:39;6.30;99.90
17236;DHT22;8734;59.272;17.780;2023-05-07T06:41:07;6.30;99.90
17236;DHT22;8734;59.272;17.780;2023-05-07T06:43:36;6.40;99.90
17236;DHT22;8734;59.272;17.780;2023-05-07T06:46:06;6.60;99.90
17236;DHT22;8734;59.272;17.780;2023-05-07T06:48:34;6.70;99.90
17236;DHT22;8734;59.272;17.780;2023-05-07T06:51:02;6.80;99.90
17236;DHT22;8734;59.272;17.780;2023-05-07T06:53:31;6.90;99.90
17236;DHT22;8734;59.272;17.780;2023-05-07T06:55:59;7.00;99.90
17236;DHT22;8734;59.272;17.780;2023-05-07T06:58:27;7.10;99.90
17236;DHT22;8734;59.272;17.780;2023-05-07T07:00:56;7.40;99.90
17236;DHT22;8734;59.272;17.780;2023-05-07T07:03:25;7.60;99.90
17236;DHT22;8734;59.272;17.780;2023-05-07T07:05:55;7.70;99.90
17236;DHT22;8734;59.272;17.780;2023-05-07T07:08:23;7.90;99.90
17236;DHT22;8734;59.272;17.780;2023-05-07T07:10:51;8.10;99.90
17236;DHT22;8734;59.272;17.780;2023-05-07T07:13:20;8.30;99.90
17236;DHT22;8734;59.272;17.780;2023-05-07T07:15:49;8.20;99.90
17236;DHT22;8734;59.272;17.780;2023-05-07T07:18:17;8.40;99.90
17236;DHT22;8734;59.272;17.780;2023-05-07T07:20:47;8.80;99.90
17236;DHT22;8734;59.272;17.780;2023-05-07T07:23:15;9.10;99.90
17236;DHT22;8734;59.272;17.780;2023-05-07T07:25:44;9.40;99.90
17236;DHT22;8734;59.272;17.780;2023-05-07T07:28:12;9.40;99.90
17236;DHT22;8734;59.272;17.780;2023-05-07T07:30:40;9.70;99.90
17236;DHT22;8734;59.272;17.780;2023-05-07T07:33:09;10.30;99.90
17236;DHT22;8734;59.272;17.780;2023-05-07T07:35:38;10.80;99.90
17236;DHT22;8734;59.272;17.780;2023-05-07T07:38:07;11.20;99.90
17236;DHT22;8734;59.272;17.780;2023-05-07T07:40:36;11.40;99.90
17236;DHT22;8734;59.272;17.780;2023-05-07T07:43:04;10.80;99.90
17236;DHT22;8734;59.272;17.780;2023-05-07T07:45:32;10.40;99.90
17236;DHT22;8734;59.272;17.780;2023-05-07T07:48:01;10.70;99.90
17236;DHT22;8734;59.272;17.780;2023-05-07T07:50:29;11.20;99.90
17236;DHT22;8734;59.272;17.780;2023-05-07T07:53:11;11.60;99.90
17236;DHT22;8734;59.272;17.780;2023-05-07T07:55:40;11.40;99.90
17236;DHT22;8734;59.272;17.780;2023-05-07T07:58:08;11.10;99.90
17236;DHT22;8734;59.272;17.780;2023-05-07T08:00:36;11.10;99.90
17236;DHT22;8734;59.272;17.780;2023-05-07T08:03:05;11.60;99.90
17236;DHT22;8734;59.272;17.780;2023-05-07T08:05:34;12.20;99.90
17236;DHT22;8734;59.272;17.780;2023-05-07T08:08:03;12.40;99.90
17236;DHT22;8734;59.272;17.780;2023-05-07T08:10:34;11.90;99.90
17236;DHT22;8734;59.272;17.780;2023-05-07T08:13:05;11.60;99.90
17236;DHT22;8734;59.272;17.780;2023-05-07T08:15:34;11.70;99.90
17236;DHT22;8734;59.272;17.780;2023-05-07T08:18:02;12.40;99.90
17236;DHT22;8734;59.272;17.780;2023-05-07T08:20:30;12.40;99.90
17236;DHT22;8734;59.272;17.780;2023-05-07T08:22:59;12.00;99.90
17236;DHT22;8734;59.272;17.780;2023-05-07T08:25:27;12.00;99.90
17236;DHT22;8734;59.272;17.780;2023-05-07T08:27:56;12.20;99.90
17236;DHT22;8734;59.272;17.780;2023-05-07T08:30:25;11.90;99.90
17236;DHT22;8734;59.272;17.780;2023-05-07T08:32:53;12.00;99.90
17236;DHT22;8734;59.272;17.780;2023-05-07T08:35:22;12.20;99.90
17236;DHT22;8734;59.272;17.780;2023-05-07T08:37:50;12.20;99.90
17236;DHT22;8734;59.272;17.780;2023-05-07T08:40:19;12.00;99.90
17236;DHT22;8734;59.272;17.780;2023-05-07T08:42:49;12.40;99.90
17236;DHT22;8734;59.272;17.780;2023-05-07T08:45:21;12.30;99.90
17236;DHT22;8734;59.272;17.780;2023-05-07T08:47:52;11.80;99.90
17236;DHT22;8734;59.272;17.780;2023-05-07T08:50:22;11.70;99.90
17236;DHT22;8734;59.272;17.780;2023-05-07T08:52:51;11.60;99.90
17236;DHT22;8734;59.272;17.780;2023-05-07T08:55:20;12.00;99.90
17236;DHT22;8734;59.272;17.780;2023-05-07T08:57:48;12.30;99.90
17236;DHT22;8734;59.272;17.780;2023-05-07T09:00:17;12.10;99.90
17236;DHT22;8734;59.272;17.780;2023-05-07T09:02:47;12.10;99.90
17236;DHT22;8734;59.272;17.780;2023-05-07T09:05:16;12.00;99.90
17236;DHT22;8734;59.272;17.780;2023-05-07T09:07:44;12.90;99.90
17236;DHT22;8734;59.272;17.780;2023-05-07T09:10:13;12.70;99.90
17236;DHT22;8734;59.272;17.780;2023-05-07T09:12:42;12.40;99.90
17236;DHT22;8734;59.272;17.780;2023-05-07T09:15:10;12.50;99.90
17236;DHT22;8734;59.272;17.780;2023-05-07T09:17:39;13.10;99.90
17236;DHT22;8734;59.272;17.780;2023-05-07T09:20:12;13.40;99.90
17236;DHT22;8734;59.272;17.780;2023-05-07T09:22:40;13.80;99.90
17236;DHT22;8734;59.272;17.780;2023-05-07T09:25:09;13.80;99.90
17236;DHT22;8734;59.272;17.780;2023-05-07T09:27:38;13.40;99.90
17236;DHT22;8734;59.272;17.780;2023-05-07T09:30:07;14.60;99.90
17236;DHT22;8734;59.272;17.780;2023-05-07T09:32:36;15.60;99.90
17236;DHT22;8734;59.272;17.780;2023-05-07T09:35:15;15.60;96.80
17236;DHT22;8734;59.272;17.780;2023-05-07T09:37:44;15.70;95.20
17236;DHT22;8734;59.272;17.780;2023-05-07T09:40:20;15.80;93.00
17236;DHT22;8734;59.272;17.780;2023-05-07T09:42:49;15.40;90.40
17236;DHT22;8734;59.272;17.780;2023-05-07T09:45:22;14.50;92.70
17236;DHT22;8734;59.272;17.780;2023-05-07T09:47:55;14.70;94.30
17236;DHT22;8734;59.272;17.780;2023-05-07T09:50:27;14.90;92.90
17236;DHT22;8734;59.272;17.780;2023-05-07T09:52:56;14.50;96.40
17236;DHT22;8734;59.272;17.780;2023-05-07T09:55:25;14.80;94.30
17236;DHT22;8734;59.272;17.780;2023-05-07T09:57:54;15.50;92.20
17236;DHT22;8734;59.272;17.780;2023-05-07T10:00:23;15.60;93.10
17236;DHT22;8734;59.272;17.780;2023-05-07T10:02:53;15.70;93.40
17236;DHT22;8734;59.272;17.780;2023-05-07T10:05:22;15.80;91.20
17236;DHT22;8734;59.272;17.780;2023-05-07T10:07:53;14.80;91.30
17236;DHT22;8734;59.272;17.780;2023-05-07T10:10:22;14.40;94.00
17236;DHT22;8734;59.272;17.780;2023-05-07T10:12:52;14.30;92.10
17236;DHT22;8734;59.272;17.780;2023-05-07T10:15:21;14.40;93.10
17236;DHT22;8734;59.272;17.780;2023-05-07T10:17:52;14.40;90.60
17236;DHT22;8734;59.272;17.780;2023-05-07T10:20:21;14.40;93.70
17236;DHT22;8734;59.272;17.780;2023-05-07T10:22:50;15.00;94.10
17236;DHT22;8734;59.272;17.780;2023-05-07T10:25:25;14.40;90.90
17236;DHT22;8734;59.272;17.780;2023-05-07T10:27:59;14.00;90.50
17236;DHT22;8734;59.272;17.780;2023-05-07T10:30:38;14.20;88.80
17236;DHT22;8734;59.272;17.780;2023-05-07T10:33:10;14.70;90.00
17236;DHT22;8734;59.272;17.780;2023-05-07T10:35:42;14.30;90.20
17236;DHT22;8734;59.272;17.780;2023-05-07T10:38:11;14.40;88.10
17236;DHT22;8734;59.272;17.780;2023-05-07T10:40:41;14.10;84.30
17236;DHT22;8734;59.272;17.780;2023-05-07T10:43:13;14.10;88.50
17236;DHT22;8734;59.272;17.780;2023-05-07T10:45:42;14.50;90.00
17236;DHT22;8734;59.272;17.780;2023-05-07T10:48:11;14.50;89.30
17236;DHT22;8734;59.272;17.780;2023-05-07T10:50:44;14.90;89.90
17236;DHT22;8734;59.272;17.780;2023-05-07T10:53:23;15.20;88.70
17236;DHT22;8734;59.272;17.780;2023-05-07T10:56:30;15.60;86.60
17236;DHT22;8734;59.272;17.780;2023-05-07T11:02:02;15.80;80.70
17236;DHT22;8734;59.272;17.780;2023-05-07T11:04:32;15.70;81.40
17236;DHT22;8734;59.272;17.780;2023-05-07T11:07:28;15.10;76.30
17236;DHT22;8734;59.272;17.780;2023-05-07T11:10:05;14.70;84.30
17236;DHT22;8734;59.272;17.780;2023-05-07T11:12:55;15.30;86.00
17236;DHT22;8734;59.272;17.780;2023-05-07T11:15:40;15.20;77.00
17236;DHT22;8734;59.272;17.780;2023-05-07T11:18:11;15.00;79.10
17236;DHT22;8734;59.272;17.780;2023-05-07T11:21:01;15.10;84.10
17236;DHT22;8734;59.272;17.780;2023-05-07T11:23:55;15.50;82.90
17236;DHT22;8734;59.272;17.780;2023-05-07T11:26:25;14.60;86.10
17236;DHT22;8734;59.272;17.780;2023-05-07T11:28:55;14.80;91.10
17236;DHT22;8734;59.272;17.780;2023-05-07T11:31:25;15.60;82.20
17236;DHT22;8734;59.272;17.780;2023-05-07T11:33:55;15.00;87.50
17236;DHT22;8734;59.272;17.780;2023-05-07T11:36:24;15.90;86.00
17236;DHT22;8734;59.272;17.780;2023-05-07T11:38:52;15.40;83.60
17236;DHT22;8734;59.272;17.780;2023-05-07T11:41:21;14.40;86.60
17236;DHT22;8734;59.272;17.780;2023-05-07T11:43:58;13.90;90.10
17236;DHT22;8734;59.272;17.780;2023-05-07T11:46:28;14.60;90.30
17236;DHT22;8734;59.272;17.780;2023-05-07T11:48:57;15.30;90.90
17236;DHT22;8734;59.272;17.780;2023-05-07T11:51:25;15.60;88.60
17236;DHT22;8734;59.272;17.780;2023-05-07T11:53:54;15.60;86.30
17236;DHT22;8734;59.272;17.780;2023-05-07T11:56:23;14.70;90.00
17236;DHT22;8734;59.272;17.780;2023-05-07T11:58:51;14.10;91.50
17236;DHT22;8734;59.272;17.780;2023-05-07T12:01:21;14.40;90.80
17236;DHT22;8734;59.272;17.780;2023-05-07T12:03:49;14.70;89.80
17236;DHT22;8734;59.272;17.780;2023-05-07T12:06:19;14.70;90.60
17236;DHT22;8734;59.272;17.780;2023-05-07T12:08:48;15.00;91.50
17236;DHT22;8734;59.272;17.780;2023-05-07T12:11:22;15.50;90.10
17236;DHT22;8734;59.272;17.780;2023-05-07T12:13:53;15.40;88.60
17236;DHT22;8734;59.272;17.780;2023-05-07T12:16:26;14.70;90.70
17236;DHT22;8734;59.272;17.780;2023-05-07T12:18:56;14.70;90.00
17236;DHT22;8734;59.272;17.780;2023-05-07T12:21:25;14.70;90.50
17236;DHT22;8734;59.272;17.780;2023-05-07T12:23:54;14.10;90.80
17236;DHT22;8734;59.272;17.780;2023-05-07T12:26:23;13.70;91.30
17236;DHT22;8734;59.272;17.780;2023-05-07T12:28:52;13.80;92.50
17236;DHT22;8734;59.272;17.780;2023-05-07T12:31:20;14.30;91.80
17236;DHT22;8734;59.272;17.780;2023-05-07T12:33:50;14.70;91.70
17236;DHT22;8734;59.272;17.780;2023-05-07T12:36:18;14.50;92.50
17236;DHT22;8734;59.272;17.780;2023-05-07T12:38:49;14.20;91.80
17236;DHT22;8734;59.272;17.780;2023-05-07T12:41:18;13.90;93.40
17236;DHT22;8734;59.272;17.780;2023-05-07T12:43:56;13.90;91.30
17236;DHT22;8734;59.272;17.780;2023-05-07T12:46:24;14.10;92.30
17236;DHT22;8734;59.272;17.780;2023-05-07T12:48:54;13.50;91.30
17236;DHT22;8734;59.272;17.780;2023-05-07T12:51:22;13.10;92.10
17236;DHT22;8734;59.272;17.780;2023-05-07T12:53:56;13.20;92.50
17236;DHT22;8734;59.272;17.780;2023-05-07T12:56:24;12.70;92.00
17236;DHT22;8734;59.272;17.780;2023-05-07T12:58:57;12.80;93.40
17236;DHT22;8734;59.272;17.780;2023-05-07T13:01:29;13.10;92.50
17236;DHT22;8734;59.272;17.780;2023-05-07T13:04:03;13.20;92.10
17236;DHT22;8734;59.272;17.780;2023-05-07T13:06:33;13.20;92.90
17236;DHT22;8734;59.272;17.780;2023-05-07T13:09:01;13.50;93.00
17236;DHT22;8734;59.272;17.780;2023-05-07T13:11:29;13.60;93.20
17236;DHT22;8734;59.272;17.780;2023-05-07T13:13:58;13.90;92.40
17236;DHT22;8734;59.272;17.780;2023-05-07T13:16:26;14.10;92.50
17236;DHT22;8734;59.272;17.780;2023-05-07T13:18:55;14.00;92.70
17236;DHT22;8734;59.272;17.780;2023-05-07T13:21:24;13.80;92.80
17236;DHT22;8734;59.272;17.780;2023-05-07T13:23:53;13.70;93.60
17236;DHT22;8734;59.272;17.780;2023-05-07T13:26:21;13.70;93.00
17236;DHT22;8734;59.272;17.780;2023-05-07T13:28:53;13.80;93.00
17236;DHT22;8734;59.272;17.780;2023-05-07T13:31:22;13.60;91.60
17236;DHT22;8734;59.272;17.780;2023-05-07T13:33:50;13.50;91.40
17236;DHT22;8734;59.272;17.780;2023-05-07T13:36:19;13.10;92.70
17236;DHT22;8734;59.272;17.780;2023-05-07T13:38:49;12.80;92.20
17236;DHT22;8734;59.272;17.780;2023-05-07T13:41:18;12.60;92.10
17236;DHT22;8734;59.272;17.780;2023-05-07T13:43:46;12.60;93.40
17236;DHT22;8734;59.272;17.780;2023-05-07T13:46:16;12.50;92.30
17236;DHT22;8734;59.272;17.780;2023-05-07T13:48:44;12.50;92.60
17236;DHT22;8734;59.272;17.780;2023-05-07T13:51:12;12.30;92.00
17236;DHT22;8734;59.272;17.780;2023-05-07T13:53:41;12.40;93.20
17236;DHT22;8734;59.272;17.780;2023-05-07T13:56:11;12.60;92.20
17236;DHT22;8734;59.272;17.780;2023-05-07T13:58:39;12.70;92.80
17236;DHT22;8734;59.272;17.780;2023-05-07T14:01:26;12.70;92.10
17236;DHT22;8734;59.272;17.780;2023-05-07T14:03:55;12.70;91.10
17236;DHT22;8734;59.272;17.780;2023-05-07T14:06:25;12.60;90.50
17236;DHT22;8734;59.272;17.780;2023-05-07T14:08:53;12.50;91.40
17236;DHT22;8734;59.272;17.780;2023-05-07T14:11:22;12.80;91.80
17236;DHT22;8734;59.272;17.780;2023-05-07T14:13:51;12.60;91.90
17236;DHT22;8734;59.272;17.780;2023-05-07T14:16:19;12.80;92.80
17236;DHT22;8734;59.272;17.780;2023-05-07T14:18:48;12.90;89.80
17236;DHT22;8734;59.272;17.780;2023-05-07T14:21:17;12.60;90.20
17236;DHT22;8734;59.272;17.780;2023-05-07T14:23:45;12.70;92.10
17236;DHT22;8734;59.272;17.780;2023-05-07T14:26:14;13.00;92.90
17236;DHT22;8734;59.272;17.780;2023-05-07T14:28:44;13.10;91.70
17236;DHT22;8734;59.272;17.780;2023-05-07T14:31:13;13.30;92.10
17236;DHT22;8734;59.272;17.780;2023-05-07T14:33:42;13.60;91.70
17236;DHT22;8734;59.272;17.780;2023-05-07T14:36:10;13.40;90.20
17236;DHT22;8734;59.272;17.780;2023-05-07T14:38:38;12.80;87.00
17236;DHT22;8734;59.272;17.780;2023-05-07T14:41:06;12.40;86.70
17236;DHT22;8734;59.272;17.780;2023-05-07T14:43:35;12.30;87.60
17236;DHT22;8734;59.272;17.780;2023-05-07T14:46:05;12.40;87.80
17236;DHT22;8734;59.272;17.780;2023-05-07T14:48:33;12.50;88.40
17236;DHT22;8734;59.272;17.780;2023-05-07T14:51:01;12.40;87.90
17236;DHT22;8734;59.272;17.780;2023-05-07T14:53:30;12.30;88.00
17236;DHT22;8734;59.272;17.780;2023-05-07T14:55:58;12.20;89.60
17236;DHT22;8734;59.272;17.780;2023-05-07T14:58:27;12.30;88.00
17236;DHT22;8734;59.272;17.780;2023-05-07T15:00:55;12.40;89.70
17236;DHT22;8734;59.272;17.780;2023-05-07T15:03:24;12.40;89.40
17236;DHT22;8734;59.272;17.780;2023-05-07T15:05:53;12.10;87.50
17236;DHT22;8734;59.272;17.780;2023-05-07T15:08:21;12.10;88.80
17236;DHT22;8734;59.272;17.780;2023-05-07T15:10:49;12.00;90.10
17236;DHT22;8734;59.272;17.780;2023-05-07T15:13:18;11.90;86.70
17236;DHT22;8734;59.272;17.780;2023-05-07T15:15:46;11.80;84.40
17236;DHT22;8734;59.272;17.780;2023-05-07T15:18:16;11.90;84.00
17236;DHT22;8734;59.272;17.780;2023-05-07T15:20:50;12.20;87.40
17236;DHT22;8734;59.272;17.780;2023-05-07T15:23:18;12.00;82.90
17236;DHT22;8734;59.272;17.780;2023-05-07T15:25:47;11.90;82.50
17236;DHT22;8734;59.272;17.780;2023-05-07T15:28:18;11.90;81.30
17236;DHT22;8734;59.272;17.780;2023-05-07T15:30:47;11.90;78.10
17236;DHT22;8734;59.272;17.780;2023-05-07T15:33:15;11.90;78.00
17236;DHT22;8734;59.272;17.780;2023-05-07T15:35:44;11.80;77.30
17236;DHT22;8734;59.272;17.780;2023-05-07T15:38:13;11.70;77.60
17236;DHT22;8734;59.272;17.780;2023-05-07T15:40:42;11.80;78.60
17236;DHT22;8734;59.272;17.780;2023-05-07T15:43:11;11.70;82.20
17236;DHT22;8734;59.272;17.780;2023-05-07T15:45:41;11.70;78.70
17236;DHT22;8734;59.272;17.780;2023-05-07T15:48:10;11.70;80.20
17236;DHT22;8734;59.272;17.780;2023-05-07T15:50:39;11.70;79.20